Hlavní strana
METAR-TAF:

METAR-TAF

Letiště :

Jakutsk, Rusko

zeměpisná šířka: 62-01N, zeměpisná délka: 129-43E, výška: 103 m

Aktuální stav počasí

Zpráva byla vytvořena před 41 minutami, v 07:00 UTC
Jižní vítr 4 kt
Teplota 9°C
Vlhkost vzduchu 40%
Tlak 1009 hPa
Viditelnost 10 km a více
Žádná oblačnost pod 1500 m, nevyskytují se cumulonimby.

METAR: UEEE 230700Z 18002MPS CAVOK 09/M04 Q1009 R23L/09//60 NOSIG RMK QFE748

Čas: 16:41 (07:41 UTC)

Předpověď počasí

Zpráva byla vytvořena před 2 hodinami a 41 minutami, v 05:00 UTC
Předpověď platná od 23 v 06 UTC do 24 v 12 UTC
Jihojihovýchodní vítr 6 kt s nárazy do 16 kt
Viditelnost 10 km a více
Oblačno až skoro zataženo ve výšce 2000 ft, Cumulonimbus.
Zataženo ve výšce 7000 ft
Dočasný
od 23 v 08 UTC do 23 v 21 UTC
Jihojihovýchodní vítr 16 kt s nárazy do 25 kt

TAF: UEEE 230500Z 2306/2412 16003G08MPS 9999 BKN020CB OVC070 TEMPO 2308/2321 16008G13MPS

Stav a předpovědi počasí z více než 4 000 letišť (zprávy METAR a TAF).

Červené a žluté tečky na mapě představují dostupné meteorologické stanice.

Když kurzor umístíte na tečku, zobrazí se název stanice.

Pak kliknutím zobrazíte stav a předpověď počasí.

Chcete-li změnit mapu, kliknutím na zelené tlačítko se znaménkem +mapu přiblížíte, kliknutím na zelené tlačítko se znaménkem – mapu oddálíte a kliknutím na zelené šipky přejdete na sousední mapy.


METAR-TAF: